CheckWX is a tool to help pilots better visualize weather data.  It is not intended as a substitute for an official pre-flight weather briefing.

10:21:02 UTC

EGPU METAR
Tiree Airport
Balemartine, United Kingdom
Current

31 mins ago

EGPU 210950Z 29003KT 5000 VCFG BKN400 09/09 Q1027
Observed
Mar-21 @ 09:50 UTC
Wind
  • 290° at 3 KTS
Visibility
5,005 meters
Flight Rules
MVFR
Conditions
Area Fog
Cloud Levels
  • Broken at 40,000' AGL
Temperature
C / 48°F
Dewpoint
C / 48°F
Humidity
100%
Altimeter
30.32" Hg
Pressure
1026.92 hPa
Previous

1 hour ago

EGPU 210920Z 30006KT 5000 VCFG BKN003 09/09 Q1027
Observed
Mar-21 @ 09:20 UTC
Wind
  • 300° at 6 KTS
Visibility
5,005 meters
Flight Rules
LIFR
Conditions
Area Fog
Cloud Levels
  • Broken at 300' AGL
Temperature
C / 48°F
Dewpoint
C / 48°F
Humidity
100%
Altimeter
30.32" Hg
Pressure
1026.92 hPa
Previous

2 hours ago

EGPU 210850Z 28008KT 9000 SCT003 BKN005 09/09 Q1027
Observed
Mar-21 @ 08:50 UTC
Wind
  • 280° at 8 KTS
Visibility
8,996 meters
Flight Rules
IFR
Cloud Levels
  • Scattered at 300' AGL
  • Broken at 500' AGL
Temperature
C / 48°F
Dewpoint
C / 48°F
Humidity
100%
Altimeter
30.32" Hg
Pressure
1026.92 hPa